Terminal Aerodrome Forecast
Issued by NWS Blacksburg, VA

Home | Current Version | Previous Version | Text Only | Print | Product List | Glossary On
Versions: 1 2 3 4 5 6 7 8 9 10 11 12 13 14 15 16 17 18 19 20 21 22 23 24 25 26 27 28 29 30 31
000
FTUS41 KRNK 270540
TAFLYH
TAF
KLYH 270540Z 2706/2806 18006KT P6SM SCT017 BKN090
      TEMPO 2706/2710 5SM BR BKN017
     FM271400 21008KT P6SM -SHRA SCT020 OVC060
     FM272100 21009KT P6SM BKN080
     FM280000 18003KT P6SM SCT120 BKN250=

USA.gov is the U.S. government's official web portal to all federal, state and local government web resources and services.